sensor_id;sensor_type;location;lat;lon;timestamp;P1;durP1;ratioP1;P2;durP2;ratioP2
56141;SDS011;42018;48.588;10.836;2022-07-29T00:00:54;3.80;;;2.22;;
56141;SDS011;42018;48.588;10.836;2022-07-29T00:03:40;4.47;;;2.50;;
56141;SDS011;42018;48.588;10.836;2022-07-29T00:06:25;4.13;;;2.22;;
56141;SDS011;42018;48.588;10.836;2022-07-29T00:09:10;3.90;;;2.10;;
56141;SDS011;42018;48.588;10.836;2022-07-29T00:11:56;3.60;;;1.90;;
56141;SDS011;42018;48.588;10.836;2022-07-29T00:14:45;3.63;;;2.17;;
56141;SDS011;42018;48.588;10.836;2022-07-29T00:17:30;3.60;;;2.00;;
56141;SDS011;42018;48.588;10.836;2022-07-29T00:20:16;3.58;;;2.00;;
56141;SDS011;42018;48.588;10.836;2022-07-29T00:23:02;3.70;;;2.10;;
56141;SDS011;42018;48.588;10.836;2022-07-29T00:25:48;4.40;;;1.95;;
56141;SDS011;42018;48.588;10.836;2022-07-29T00:28:33;4.25;;;2.20;;
56141;SDS011;42018;48.588;10.836;2022-07-29T00:31:18;3.78;;;1.92;;
56141;SDS011;42018;48.588;10.836;2022-07-29T00:34:04;5.03;;;1.98;;
56141;SDS011;42018;48.588;10.836;2022-07-29T00:36:51;3.80;;;2.10;;
56141;SDS011;42018;48.588;10.836;2022-07-29T00:39:36;3.95;;;2.00;;
56141;SDS011;42018;48.588;10.836;2022-07-29T00:42:21;4.45;;;2.40;;
56141;SDS011;42018;48.588;10.836;2022-07-29T00:45:07;5.00;;;2.33;;
56141;SDS011;42018;48.588;10.836;2022-07-29T00:47:53;4.13;;;2.30;;
56141;SDS011;42018;48.588;10.836;2022-07-29T00:50:38;4.28;;;2.28;;
56141;SDS011;42018;48.588;10.836;2022-07-29T00:53:24;4.22;;;2.30;;
56141;SDS011;42018;48.588;10.836;2022-07-29T00:56:10;4.78;;;2.40;;
56141;SDS011;42018;48.588;10.836;2022-07-29T00:58:55;3.97;;;2.20;;
56141;SDS011;42018;48.588;10.836;2022-07-29T01:01:41;4.30;;;2.20;;
56141;SDS011;42018;48.588;10.836;2022-07-29T01:04:27;4.50;;;2.30;;
56141;SDS011;42018;48.588;10.836;2022-07-29T01:07:14;5.03;;;2.38;;
56141;SDS011;42018;48.588;10.836;2022-07-29T01:10:01;5.20;;;2.50;;
56141;SDS011;42018;48.588;10.836;2022-07-29T01:12:48;4.20;;;2.50;;
56141;SDS011;42018;48.588;10.836;2022-07-29T01:15:54;4.30;;;2.42;;
56141;SDS011;42018;48.588;10.836;2022-07-29T01:18:47;3.97;;;2.38;;
56141;SDS011;42018;48.588;10.836;2022-07-29T01:21:48;3.88;;;2.10;;
56141;SDS011;42018;48.588;10.836;2022-07-29T01:30:33;4.05;;;2.20;;
56141;SDS011;42018;48.588;10.836;2022-07-29T01:33:23;4.60;;;2.30;;
56141;SDS011;42018;48.588;10.836;2022-07-29T01:48:31;3.38;;;2.00;;
56141;SDS011;42018;48.588;10.836;2022-07-29T01:51:25;3.90;;;2.10;;
56141;SDS011;42018;48.588;10.836;2022-07-29T01:54:37;3.80;;;2.00;;
56141;SDS011;42018;48.588;10.836;2022-07-29T01:57:20;4.03;;;2.00;;
56141;SDS011;42018;48.588;10.836;2022-07-29T02:00:10;3.40;;;1.90;;
56141;SDS011;42018;48.588;10.836;2022-07-29T02:02:56;3.60;;;1.80;;
56141;SDS011;42018;48.588;10.836;2022-07-29T02:05:43;4.72;;;1.92;;
56141;SDS011;42018;48.588;10.836;2022-07-29T02:08:33;3.00;;;1.60;;
56141;SDS011;42018;48.588;10.836;2022-07-29T02:11:20;3.10;;;1.98;;
56141;SDS011;42018;48.588;10.836;2022-07-29T02:14:06;4.72;;;1.80;;
56141;SDS011;42018;48.588;10.836;2022-07-29T02:16:54;3.17;;;1.63;;
56141;SDS011;42018;48.588;10.836;2022-07-29T02:19:43;2.72;;;1.48;;
56141;SDS011;42018;48.588;10.836;2022-07-29T02:22:31;2.97;;;1.70;;
56141;SDS011;42018;48.588;10.836;2022-07-29T02:25:18;2.40;;;1.40;;
56141;SDS011;42018;48.588;10.836;2022-07-29T02:28:07;2.60;;;1.50;;
56141;SDS011;42018;48.588;10.836;2022-07-29T02:30:53;2.95;;;1.60;;
56141;SDS011;42018;48.588;10.836;2022-07-29T02:33:42;4.22;;;1.58;;
56141;SDS011;42018;48.588;10.836;2022-07-29T02:36:30;2.88;;;1.40;;
56141;SDS011;42018;48.588;10.836;2022-07-29T02:39:17;2.70;;;1.42;;
56141;SDS011;42018;48.588;10.836;2022-07-29T02:42:05;3.25;;;1.58;;
56141;SDS011;42018;48.588;10.836;2022-07-29T02:44:52;2.72;;;1.50;;
56141;SDS011;42018;48.588;10.836;2022-07-29T02:47:47;2.60;;;1.35;;
56141;SDS011;42018;48.588;10.836;2022-07-29T02:50:36;2.42;;;1.48;;
56141;SDS011;42018;48.588;10.836;2022-07-29T02:53:25;3.40;;;1.50;;
56141;SDS011;42018;48.588;10.836;2022-07-29T02:56:13;3.83;;;1.80;;
56141;SDS011;42018;48.588;10.836;2022-07-29T02:59:03;4.07;;;1.80;;
56141;SDS011;42018;48.588;10.836;2022-07-29T03:01:51;2.80;;;1.73;;
56141;SDS011;42018;48.588;10.836;2022-07-29T03:04:39;2.90;;;1.40;;
56141;SDS011;42018;48.588;10.836;2022-07-29T03:07:27;3.15;;;1.67;;
56141;SDS011;42018;48.588;10.836;2022-07-29T03:10:13;2.80;;;1.60;;
56141;SDS011;42018;48.588;10.836;2022-07-29T03:12:58;3.63;;;2.00;;
56141;SDS011;42018;48.588;10.836;2022-07-29T03:15:46;2.95;;;1.80;;
56141;SDS011;42018;48.588;10.836;2022-07-29T03:18:32;4.00;;;1.73;;
56141;SDS011;42018;48.588;10.836;2022-07-29T03:21:18;3.70;;;1.70;;
56141;SDS011;42018;48.588;10.836;2022-07-29T03:24:04;3.90;;;1.90;;
56141;SDS011;42018;48.588;10.836;2022-07-29T03:26:49;4.07;;;2.10;;
56141;SDS011;42018;48.588;10.836;2022-07-29T03:29:35;3.33;;;1.88;;
56141;SDS011;42018;48.588;10.836;2022-07-29T03:32:21;3.88;;;1.90;;
56141;SDS011;42018;48.588;10.836;2022-07-29T03:35:06;4.28;;;2.00;;
56141;SDS011;42018;48.588;10.836;2022-07-29T03:37:52;3.70;;;2.20;;
56141;SDS011;42018;48.588;10.836;2022-07-29T03:40:42;3.13;;;1.92;;
56141;SDS011;42018;48.588;10.836;2022-07-29T03:43:30;3.72;;;1.90;;
56141;SDS011;42018;48.588;10.836;2022-07-29T03:46:20;4.47;;;2.33;;
56141;SDS011;42018;48.588;10.836;2022-07-29T03:49:07;4.47;;;2.33;;
56141;SDS011;42018;48.588;10.836;2022-07-29T03:51:54;3.45;;;1.85;;
56141;SDS011;42018;48.588;10.836;2022-07-29T03:54:39;3.67;;;2.00;;
56141;SDS011;42018;48.588;10.836;2022-07-29T03:57:27;3.78;;;1.98;;
56141;SDS011;42018;48.588;10.836;2022-07-29T04:00:15;3.92;;;2.50;;
56141;SDS011;42018;48.588;10.836;2022-07-29T04:03:01;4.60;;;2.58;;
56141;SDS011;42018;48.588;10.836;2022-07-29T04:05:58;4.45;;;2.20;;
56141;SDS011;42018;48.588;10.836;2022-07-29T04:08:45;3.80;;;2.10;;
56141;SDS011;42018;48.588;10.836;2022-07-29T04:11:30;4.00;;;2.22;;
56141;SDS011;42018;48.588;10.836;2022-07-29T04:14:15;4.53;;;2.50;;
56141;SDS011;42018;48.588;10.836;2022-07-29T04:17:01;4.13;;;2.30;;
56141;SDS011;42018;48.588;10.836;2022-07-29T04:19:47;4.53;;;2.63;;
56141;SDS011;42018;48.588;10.836;2022-07-29T04:22:32;5.13;;;2.53;;
56141;SDS011;42018;48.588;10.836;2022-07-29T04:25:18;6.28;;;3.08;;
56141;SDS011;42018;48.588;10.836;2022-07-29T04:28:04;4.60;;;2.58;;
56141;SDS011;42018;48.588;10.836;2022-07-29T04:30:49;4.10;;;2.50;;
56141;SDS011;42018;48.588;10.836;2022-07-29T04:33:35;8.25;;;2.80;;
56141;SDS011;42018;48.588;10.836;2022-07-29T04:36:20;4.53;;;2.60;;
56141;SDS011;42018;48.588;10.836;2022-07-29T04:39:05;5.07;;;2.95;;
56141;SDS011;42018;48.588;10.836;2022-07-29T04:41:51;4.18;;;2.50;;
56141;SDS011;42018;48.588;10.836;2022-07-29T04:44:36;4.57;;;2.42;;
56141;SDS011;42018;48.588;10.836;2022-07-29T04:47:21;4.65;;;2.45;;
56141;SDS011;42018;48.588;10.836;2022-07-29T04:50:07;4.93;;;2.50;;
56141;SDS011;42018;48.588;10.836;2022-07-29T04:52:54;4.65;;;2.30;;
56141;SDS011;42018;48.588;10.836;2022-07-29T04:55:39;4.53;;;2.40;;
56141;SDS011;42018;48.588;10.836;2022-07-29T04:58:24;5.20;;;2.50;;
56141;SDS011;42018;48.588;10.836;2022-07-29T05:01:11;4.50;;;2.65;;
56141;SDS011;42018;48.588;10.836;2022-07-29T05:03:56;4.82;;;2.00;;
56141;SDS011;42018;48.588;10.836;2022-07-29T05:06:41;3.70;;;2.20;;
56141;SDS011;42018;48.588;10.836;2022-07-29T05:09:27;4.22;;;2.30;;
56141;SDS011;42018;48.588;10.836;2022-07-29T05:12:12;5.00;;;2.53;;
56141;SDS011;42018;48.588;10.836;2022-07-29T05:14:58;4.72;;;2.70;;
56141;SDS011;42018;48.588;10.836;2022-07-29T05:17:43;4.78;;;2.22;;
56141;SDS011;42018;48.588;10.836;2022-07-29T05:20:29;4.88;;;2.50;;
56141;SDS011;42018;48.588;10.836;2022-07-29T05:23:15;4.00;;;2.30;;
56141;SDS011;42018;48.588;10.836;2022-07-29T05:26:00;4.10;;;2.50;;
56141;SDS011;42018;48.588;10.836;2022-07-29T05:28:46;4.72;;;2.55;;
56141;SDS011;42018;48.588;10.836;2022-07-29T05:31:32;3.60;;;2.13;;
56141;SDS011;42018;48.588;10.836;2022-07-29T05:34:18;6.60;;;2.92;;
56141;SDS011;42018;48.588;10.836;2022-07-29T05:37:04;5.47;;;2.70;;
56141;SDS011;42018;48.588;10.836;2022-07-29T05:39:50;12.02;;;3.65;;
56141;SDS011;42018;48.588;10.836;2022-07-29T05:42:35;4.80;;;2.50;;
56141;SDS011;42018;48.588;10.836;2022-07-29T05:45:21;5.75;;;2.03;;
56141;SDS011;42018;48.588;10.836;2022-07-29T05:48:06;5.57;;;2.20;;
56141;SDS011;42018;48.588;10.836;2022-07-29T05:50:52;4.07;;;1.90;;
56141;SDS011;42018;48.588;10.836;2022-07-29T05:53:37;4.82;;;2.50;;
56141;SDS011;42018;48.588;10.836;2022-07-29T05:56:23;3.83;;;2.08;;
56141;SDS011;42018;48.588;10.836;2022-07-29T05:59:08;4.35;;;2.22;;
56141;SDS011;42018;48.588;10.836;2022-07-29T06:01:53;3.70;;;2.05;;
56141;SDS011;42018;48.588;10.836;2022-07-29T06:04:39;3.78;;;1.95;;
56141;SDS011;42018;48.588;10.836;2022-07-29T06:07:24;4.22;;;2.00;;
56141;SDS011;42018;48.588;10.836;2022-07-29T06:10:10;4.13;;;2.55;;
56141;SDS011;42018;48.588;10.836;2022-07-29T06:12:55;5.13;;;2.40;;
56141;SDS011;42018;48.588;10.836;2022-07-29T06:15:41;3.85;;;2.40;;
56141;SDS011;42018;48.588;10.836;2022-07-29T06:18:27;4.25;;;2.38;;
56141;SDS011;42018;48.588;10.836;2022-07-29T06:21:13;7.97;;;2.40;;
56141;SDS011;42018;48.588;10.836;2022-07-29T06:23:59;3.85;;;2.30;;
56141;SDS011;42018;48.588;10.836;2022-07-29T06:26:45;3.42;;;2.00;;
56141;SDS011;42018;48.588;10.836;2022-07-29T06:29:30;3.65;;;2.10;;
56141;SDS011;42018;48.588;10.836;2022-07-29T06:32:15;4.05;;;2.20;;
56141;SDS011;42018;48.588;10.836;2022-07-29T06:35:01;3.25;;;1.80;;
56141;SDS011;42018;48.588;10.836;2022-07-29T06:37:46;3.83;;;1.90;;
56141;SDS011;42018;48.588;10.836;2022-07-29T06:40:32;3.72;;;1.92;;
56141;SDS011;42018;48.588;10.836;2022-07-29T06:43:36;3.70;;;2.10;;
56141;SDS011;42018;48.588;10.836;2022-07-29T06:46:23;4.40;;;2.20;;
56141;SDS011;42018;48.588;10.836;2022-07-29T06:49:09;3.72;;;1.70;;
56141;SDS011;42018;48.588;10.836;2022-07-29T06:51:55;3.55;;;1.70;;
56141;SDS011;42018;48.588;10.836;2022-07-29T06:54:40;3.45;;;2.03;;
56141;SDS011;42018;48.588;10.836;2022-07-29T06:57:32;4.72;;;2.30;;
56141;SDS011;42018;48.588;10.836;2022-07-29T07:00:18;3.83;;;1.98;;
56141;SDS011;42018;48.588;10.836;2022-07-29T07:03:03;3.97;;;1.70;;
56141;SDS011;42018;48.588;10.836;2022-07-29T07:05:48;3.53;;;1.60;;
56141;SDS011;42018;48.588;10.836;2022-07-29T07:08:34;4.65;;;2.08;;
56141;SDS011;42018;48.588;10.836;2022-07-29T07:11:19;3.20;;;1.77;;
56141;SDS011;42018;48.588;10.836;2022-07-29T07:14:05;3.03;;;1.55;;
56141;SDS011;42018;48.588;10.836;2022-07-29T07:16:50;3.92;;;1.50;;
56141;SDS011;42018;48.588;10.836;2022-07-29T07:19:36;3.80;;;1.50;;
56141;SDS011;42018;48.588;10.836;2022-07-29T07:22:21;1.85;;;1.17;;
56141;SDS011;42018;48.588;10.836;2022-07-29T07:25:07;2.85;;;1.20;;
56141;SDS011;42018;48.588;10.836;2022-07-29T07:27:52;2.92;;;1.40;;
56141;SDS011;42018;48.588;10.836;2022-07-29T07:30:39;2.85;;;1.33;;
56141;SDS011;42018;48.588;10.836;2022-07-29T07:33:24;3.00;;;1.30;;
56141;SDS011;42018;48.588;10.836;2022-07-29T07:36:09;2.53;;;1.40;;
56141;SDS011;42018;48.588;10.836;2022-07-29T07:38:55;3.08;;;1.52;;
56141;SDS011;42018;48.588;10.836;2022-07-29T07:41:40;3.28;;;1.33;;
56141;SDS011;42018;48.588;10.836;2022-07-29T07:44:26;2.45;;;1.33;;
56141;SDS011;42018;48.588;10.836;2022-07-29T07:47:12;2.80;;;1.30;;
56141;SDS011;42018;48.588;10.836;2022-07-29T07:49:57;2.35;;;1.30;;
56141;SDS011;42018;48.588;10.836;2022-07-29T07:52:46;2.88;;;1.40;;
56141;SDS011;42018;48.588;10.836;2022-07-29T07:55:40;2.78;;;1.40;;
56141;SDS011;42018;48.588;10.836;2022-07-29T07:58:26;2.65;;;1.20;;
56141;SDS011;42018;48.588;10.836;2022-07-29T08:01:11;2.33;;;1.30;;
56141;SDS011;42018;48.588;10.836;2022-07-29T08:03:57;2.97;;;1.50;;
56141;SDS011;42018;48.588;10.836;2022-07-29T08:06:42;3.20;;;1.30;;
56141;SDS011;42018;48.588;10.836;2022-07-29T08:09:28;2.42;;;1.15;;
56141;SDS011;42018;48.588;10.836;2022-07-29T08:12:14;2.10;;;1.30;;
56141;SDS011;42018;48.588;10.836;2022-07-29T08:14:59;2.50;;;1.30;;
56141;SDS011;42018;48.588;10.836;2022-07-29T08:17:45;2.67;;;1.23;;
56141;SDS011;42018;48.588;10.836;2022-07-29T08:20:31;2.22;;;1.10;;
56141;SDS011;42018;48.588;10.836;2022-07-29T08:23:18;2.25;;;1.20;;
56141;SDS011;42018;48.588;10.836;2022-07-29T08:26:07;3.20;;;1.50;;
56141;SDS011;42018;48.588;10.836;2022-07-29T08:28:55;2.35;;;1.10;;
56141;SDS011;42018;48.588;10.836;2022-07-29T08:31:40;2.00;;;1.15;;
56141;SDS011;42018;48.588;10.836;2022-07-29T08:34:26;3.22;;;1.20;;
56141;SDS011;42018;48.588;10.836;2022-07-29T08:37:11;5.55;;;1.10;;
56141;SDS011;42018;48.588;10.836;2022-07-29T08:39:57;1.80;;;1.10;;
56141;SDS011;42018;48.588;10.836;2022-07-29T08:42:42;1.55;;;1.00;;
56141;SDS011;42018;48.588;10.836;2022-07-29T08:45:28;3.00;;;1.20;;
56141;SDS011;42018;48.588;10.836;2022-07-29T08:48:15;2.13;;;1.02;;
56141;SDS011;42018;48.588;10.836;2022-07-29T08:51:02;3.08;;;1.10;;
56141;SDS011;42018;48.588;10.836;2022-07-29T08:53:49;2.22;;;1.10;;
56141;SDS011;42018;48.588;10.836;2022-07-29T08:56:35;2.30;;;1.20;;
56141;SDS011;42018;48.588;10.836;2022-07-29T08:59:22;2.40;;;1.27;;
56141;SDS011;42018;48.588;10.836;2022-07-29T09:02:21;2.83;;;1.30;;
56141;SDS011;42018;48.588;10.836;2022-07-29T09:05:08;2.22;;;1.20;;
56141;SDS011;42018;48.588;10.836;2022-07-29T09:07:53;3.50;;;1.45;;
56141;SDS011;42018;48.588;10.836;2022-07-29T09:10:39;2.00;;;1.38;;
56141;SDS011;42018;48.588;10.836;2022-07-29T09:13:25;2.45;;;1.20;;
56141;SDS011;42018;48.588;10.836;2022-07-29T09:16:10;3.65;;;1.30;;
56141;SDS011;42018;48.588;10.836;2022-07-29T09:18:56;3.97;;;1.35;;
56141;SDS011;42018;48.588;10.836;2022-07-29T09:21:41;4.57;;;1.45;;
56141;SDS011;42018;48.588;10.836;2022-07-29T09:24:45;4.57;;;1.60;;
56141;SDS011;42018;48.588;10.836;2022-07-29T09:27:32;4.80;;;1.40;;
56141;SDS011;42018;48.588;10.836;2022-07-29T09:30:18;4.40;;;1.60;;
56141;SDS011;42018;48.588;10.836;2022-07-29T09:33:03;3.08;;;1.40;;
56141;SDS011;42018;48.588;10.836;2022-07-29T09:36:03;2.83;;;1.60;;
56141;SDS011;42018;48.588;10.836;2022-07-29T09:38:59;2.40;;;1.25;;
56141;SDS011;42018;48.588;10.836;2022-07-29T09:41:46;2.55;;;1.25;;
56141;SDS011;42018;48.588;10.836;2022-07-29T09:44:41;2.85;;;1.40;;
56141;SDS011;42018;48.588;10.836;2022-07-29T09:47:39;3.85;;;1.35;;
56141;SDS011;42018;48.588;10.836;2022-07-29T09:50:39;1.60;;;1.03;;
56141;SDS011;42018;48.588;10.836;2022-07-29T09:53:30;2.22;;;1.38;;
56141;SDS011;42018;48.588;10.836;2022-07-29T09:56:15;2.55;;;1.15;;
56141;SDS011;42018;48.588;10.836;2022-07-29T09:59:07;2.80;;;1.20;;
56141;SDS011;42018;48.588;10.836;2022-07-29T10:01:54;2.53;;;1.30;;
56141;SDS011;42018;48.588;10.836;2022-07-29T10:04:40;2.80;;;1.30;;
56141;SDS011;42018;48.588;10.836;2022-07-29T10:07:27;2.17;;;1.20;;
56141;SDS011;42018;48.588;10.836;2022-07-29T10:10:32;2.42;;;1.40;;
56141;SDS011;42018;48.588;10.836;2022-07-29T10:13:21;3.53;;;1.58;;
56141;SDS011;42018;48.588;10.836;2022-07-29T10:16:07;3.05;;;1.50;;
56141;SDS011;42018;48.588;10.836;2022-07-29T10:18:53;4.38;;;1.38;;
56141;SDS011;42018;48.588;10.836;2022-07-29T10:21:39;2.38;;;1.30;;
56141;SDS011;42018;48.588;10.836;2022-07-29T10:24:28;2.92;;;1.30;;
56141;SDS011;42018;48.588;10.836;2022-07-29T10:27:15;1.80;;;1.05;;
56141;SDS011;42018;48.588;10.836;2022-07-29T10:30:01;2.70;;;1.48;;
56141;SDS011;42018;48.588;10.836;2022-07-29T10:42:21;2.95;;;1.40;;
56141;SDS011;42018;48.588;10.836;2022-07-29T10:45:09;4.03;;;1.30;;
56141;SDS011;42018;48.588;10.836;2022-07-29T10:48:13;2.72;;;1.48;;
56141;SDS011;42018;48.588;10.836;2022-07-29T10:51:03;5.82;;;1.55;;
56141;SDS011;42018;48.588;10.836;2022-07-29T10:53:50;2.55;;;1.40;;
56141;SDS011;42018;48.588;10.836;2022-07-29T10:56:36;3.28;;;1.67;;
56141;SDS011;42018;48.588;10.836;2022-07-29T11:05:15;2.67;;;1.52;;
56141;SDS011;42018;48.588;10.836;2022-07-29T11:14:05;2.63;;;1.40;;
56141;SDS011;42018;48.588;10.836;2022-07-29T11:17:00;2.55;;;1.30;;
56141;SDS011;42018;48.588;10.836;2022-07-29T11:19:48;5.03;;;1.40;;
56141;SDS011;42018;48.588;10.836;2022-07-29T11:22:34;2.15;;;1.30;;
56141;SDS011;42018;48.588;10.836;2022-07-29T11:25:20;4.28;;;1.60;;
56141;SDS011;42018;48.588;10.836;2022-07-29T11:28:11;2.42;;;1.27;;
56141;SDS011;42018;48.588;10.836;2022-07-29T11:31:01;2.45;;;1.30;;
56141;SDS011;42018;48.588;10.836;2022-07-29T11:33:47;2.13;;;1.10;;
56141;SDS011;42018;48.588;10.836;2022-07-29T11:36:33;3.83;;;1.20;;
56141;SDS011;42018;48.588;10.836;2022-07-29T11:39:24;3.28;;;1.20;;
56141;SDS011;42018;48.588;10.836;2022-07-29T11:47:53;2.83;;;1.30;;
56141;SDS011;42018;48.588;10.836;2022-07-29T11:50:43;3.15;;;1.30;;
56141;SDS011;42018;48.588;10.836;2022-07-29T11:53:28;3.05;;;1.20;;
56141;SDS011;42018;48.588;10.836;2022-07-29T11:56:14;4.28;;;1.45;;
56141;SDS011;42018;48.588;10.836;2022-07-29T11:59:06;3.50;;;1.20;;
56141;SDS011;42018;48.588;10.836;2022-07-29T12:01:57;2.55;;;1.10;;
56141;SDS011;42018;48.588;10.836;2022-07-29T12:04:56;1.58;;;1.10;;
56141;SDS011;42018;48.588;10.836;2022-07-29T12:07:43;2.72;;;1.20;;
56141;SDS011;42018;48.588;10.836;2022-07-29T12:10:31;4.20;;;1.33;;
56141;SDS011;42018;48.588;10.836;2022-07-29T12:13:18;2.63;;;1.27;;
56141;SDS011;42018;48.588;10.836;2022-07-29T12:16:04;2.63;;;1.15;;
56141;SDS011;42018;48.588;10.836;2022-07-29T12:18:57;4.13;;;1.30;;
56141;SDS011;42018;48.588;10.836;2022-07-29T12:21:50;3.33;;;1.20;;
56141;SDS011;42018;48.588;10.836;2022-07-29T12:24:44;3.92;;;1.25;;
56141;SDS011;42018;48.588;10.836;2022-07-29T12:27:29;2.40;;;1.20;;
56141;SDS011;42018;48.588;10.836;2022-07-29T12:30:15;2.50;;;1.40;;
56141;SDS011;42018;48.588;10.836;2022-07-29T12:33:01;4.60;;;1.30;;
56141;SDS011;42018;48.588;10.836;2022-07-29T12:35:47;3.53;;;1.20;;
56141;SDS011;42018;48.588;10.836;2022-07-29T12:38:35;2.17;;;1.13;;
56141;SDS011;42018;48.588;10.836;2022-07-29T12:41:20;3.22;;;1.30;;
56141;SDS011;42018;48.588;10.836;2022-07-29T12:44:06;2.45;;;1.20;;
56141;SDS011;42018;48.588;10.836;2022-07-29T12:47:01;3.45;;;1.30;;
56141;SDS011;42018;48.588;10.836;2022-07-29T12:49:48;3.42;;;1.27;;
56141;SDS011;42018;48.588;10.836;2022-07-29T12:52:35;2.50;;;1.20;;
56141;SDS011;42018;48.588;10.836;2022-07-29T12:58:37;4.00;;;1.25;;
56141;SDS011;42018;48.588;10.836;2022-07-29T13:01:25;3.37;;;1.20;;
56141;SDS011;42018;48.588;10.836;2022-07-29T13:04:23;2.22;;;1.13;;
56141;SDS011;42018;48.588;10.836;2022-07-29T13:07:10;3.20;;;1.27;;
56141;SDS011;42018;48.588;10.836;2022-07-29T13:10:10;2.78;;;1.20;;
56141;SDS011;42018;48.588;10.836;2022-07-29T13:13:10;3.25;;;1.20;;
56141;SDS011;42018;48.588;10.836;2022-07-29T13:16:15;3.10;;;1.30;;
56141;SDS011;42018;48.588;10.836;2022-07-29T13:19:08;2.92;;;1.50;;
56141;SDS011;42018;48.588;10.836;2022-07-29T13:21:55;3.95;;;1.40;;
56141;SDS011;42018;48.588;10.836;2022-07-29T13:24:48;4.28;;;1.60;;
56141;SDS011;42018;48.588;10.836;2022-07-29T13:27:35;4.18;;;1.65;;
56141;SDS011;42018;48.588;10.836;2022-07-29T13:30:22;4.10;;;1.80;;
56141;SDS011;42018;48.588;10.836;2022-07-29T13:33:08;6.18;;;1.90;;
56141;SDS011;42018;48.588;10.836;2022-07-29T13:35:53;3.55;;;1.85;;
56141;SDS011;42018;48.588;10.836;2022-07-29T13:38:39;3.85;;;1.70;;
56141;SDS011;42018;48.588;10.836;2022-07-29T13:41:24;3.47;;;1.90;;
56141;SDS011;42018;48.588;10.836;2022-07-29T13:44:10;3.15;;;1.80;;
56141;SDS011;42018;48.588;10.836;2022-07-29T13:46:56;6.50;;;1.80;;
56141;SDS011;42018;48.588;10.836;2022-07-29T13:49:43;7.32;;;1.90;;
56141;SDS011;42018;48.588;10.836;2022-07-29T13:52:29;5.57;;;1.80;;
56141;SDS011;42018;48.588;10.836;2022-07-29T13:55:14;3.33;;;1.65;;
56141;SDS011;42018;48.588;10.836;2022-07-29T13:57:59;4.72;;;1.70;;
56141;SDS011;42018;48.588;10.836;2022-07-29T14:00:45;4.88;;;1.58;;
56141;SDS011;42018;48.588;10.836;2022-07-29T14:03:31;2.80;;;1.10;;
56141;SDS011;42018;48.588;10.836;2022-07-29T14:06:16;3.50;;;1.10;;
56141;SDS011;42018;48.588;10.836;2022-07-29T14:09:02;2.13;;;1.00;;
56141;SDS011;42018;48.588;10.836;2022-07-29T14:11:51;2.67;;;1.00;;
56141;SDS011;42018;48.588;10.836;2022-07-29T14:14:37;2.95;;;1.10;;
56141;SDS011;42018;48.588;10.836;2022-07-29T14:17:23;2.63;;;1.10;;
56141;SDS011;42018;48.588;10.836;2022-07-29T14:20:08;3.40;;;1.40;;
56141;SDS011;42018;48.588;10.836;2022-07-29T14:22:54;2.35;;;1.13;;
56141;SDS011;42018;48.588;10.836;2022-07-29T14:25:40;2.13;;;1.08;;
56141;SDS011;42018;48.588;10.836;2022-07-29T14:28:25;3.22;;;1.25;;
56141;SDS011;42018;48.588;10.836;2022-07-29T14:31:11;5.57;;;1.50;;
56141;SDS011;42018;48.588;10.836;2022-07-29T14:33:56;4.57;;;1.30;;
56141;SDS011;42018;48.588;10.836;2022-07-29T14:36:41;2.28;;;0.90;;
56141;SDS011;42018;48.588;10.836;2022-07-29T14:39:27;2.70;;;1.30;;
56141;SDS011;42018;48.588;10.836;2022-07-29T14:42:12;2.40;;;1.20;;
56141;SDS011;42018;48.588;10.836;2022-07-29T14:44:58;1.70;;;0.90;;
56141;SDS011;42018;48.588;10.836;2022-07-29T14:47:43;3.25;;;0.95;;
56141;SDS011;42018;48.588;10.836;2022-07-29T14:50:29;1.98;;;0.90;;
56141;SDS011;42018;48.588;10.836;2022-07-29T14:53:14;1.88;;;0.85;;
56141;SDS011;42018;48.588;10.836;2022-07-29T14:56:00;2.00;;;1.00;;
56141;SDS011;42018;48.588;10.836;2022-07-29T14:58:45;1.23;;;0.70;;
56141;SDS011;42018;48.588;10.836;2022-07-29T15:01:30;1.10;;;0.60;;
56141;SDS011;42018;48.588;10.836;2022-07-29T15:04:16;0.98;;;0.70;;
56141;SDS011;42018;48.588;10.836;2022-07-29T15:07:01;1.02;;;0.60;;
56141;SDS011;42018;48.588;10.836;2022-07-29T15:09:47;1.42;;;0.80;;
56141;SDS011;42018;48.588;10.836;2022-07-29T15:12:32;1.63;;;0.95;;
56141;SDS011;42018;48.588;10.836;2022-07-29T15:15:18;1.77;;;0.80;;
56141;SDS011;42018;48.588;10.836;2022-07-29T15:18:03;2.35;;;0.88;;
56141;SDS011;42018;48.588;10.836;2022-07-29T15:20:49;1.48;;;0.80;;
56141;SDS011;42018;48.588;10.836;2022-07-29T15:23:34;2.05;;;1.00;;
56141;SDS011;42018;48.588;10.836;2022-07-29T15:26:21;2.13;;;1.08;;
56141;SDS011;42018;48.588;10.836;2022-07-29T15:29:06;1.77;;;1.00;;
56141;SDS011;42018;48.588;10.836;2022-07-29T15:31:51;2.03;;;0.90;;
56141;SDS011;42018;48.588;10.836;2022-07-29T15:34:37;2.63;;;1.00;;
56141;SDS011;42018;48.588;10.836;2022-07-29T15:37:23;2.17;;;1.13;;
56141;SDS011;42018;48.588;10.836;2022-07-29T15:40:08;1.75;;;1.02;;
56141;SDS011;42018;48.588;10.836;2022-07-29T15:42:54;1.77;;;1.00;;
56141;SDS011;42018;48.588;10.836;2022-07-29T15:45:40;2.33;;;1.15;;
56141;SDS011;42018;48.588;10.836;2022-07-29T15:48:47;2.90;;;1.20;;
56141;SDS011;42018;48.588;10.836;2022-07-29T15:51:32;4.00;;;1.20;;
56141;SDS011;42018;48.588;10.836;2022-07-29T15:54:18;2.25;;;1.10;;
56141;SDS011;42018;48.588;10.836;2022-07-29T15:57:04;3.50;;;1.50;;
56141;SDS011;42018;48.588;10.836;2022-07-29T15:59:50;2.58;;;1.23;;
56141;SDS011;42018;48.588;10.836;2022-07-29T16:02:35;2.95;;;1.50;;
56141;SDS011;42018;48.588;10.836;2022-07-29T16:05:21;2.85;;;1.20;;
56141;SDS011;42018;48.588;10.836;2022-07-29T16:08:07;2.83;;;1.23;;
56141;SDS011;42018;48.588;10.836;2022-07-29T16:10:52;4.05;;;1.23;;
56141;SDS011;42018;48.588;10.836;2022-07-29T16:13:38;3.40;;;1.20;;
56141;SDS011;42018;48.588;10.836;2022-07-29T16:16:23;2.47;;;1.30;;
56141;SDS011;42018;48.588;10.836;2022-07-29T16:19:09;1.77;;;1.10;;
56141;SDS011;42018;48.588;10.836;2022-07-29T16:21:54;2.05;;;1.10;;
56141;SDS011;42018;48.588;10.836;2022-07-29T16:24:40;2.60;;;1.13;;
56141;SDS011;42018;48.588;10.836;2022-07-29T16:27:25;2.35;;;1.15;;
56141;SDS011;42018;48.588;10.836;2022-07-29T16:30:12;2.10;;;1.20;;
56141;SDS011;42018;48.588;10.836;2022-07-29T16:32:57;2.35;;;1.20;;
56141;SDS011;42018;48.588;10.836;2022-07-29T16:35:43;5.13;;;1.33;;
56141;SDS011;42018;48.588;10.836;2022-07-29T16:38:28;2.65;;;1.27;;
56141;SDS011;42018;48.588;10.836;2022-07-29T16:41:14;2.38;;;1.30;;
56141;SDS011;42018;48.588;10.836;2022-07-29T16:43:59;4.00;;;1.40;;
56141;SDS011;42018;48.588;10.836;2022-07-29T16:46:44;2.22;;;1.20;;
56141;SDS011;42018;48.588;10.836;2022-07-29T16:49:30;2.22;;;1.27;;
56141;SDS011;42018;48.588;10.836;2022-07-29T16:52:15;1.98;;;1.10;;
56141;SDS011;42018;48.588;10.836;2022-07-29T16:55:01;2.50;;;1.35;;
56141;SDS011;42018;48.588;10.836;2022-07-29T16:57:46;2.58;;;1.20;;
56141;SDS011;42018;48.588;10.836;2022-07-29T17:00:32;2.30;;;1.33;;
56141;SDS011;42018;48.588;10.836;2022-07-29T17:03:18;2.78;;;1.30;;
56141;SDS011;42018;48.588;10.836;2022-07-29T17:06:03;2.03;;;1.00;;
56141;SDS011;42018;48.588;10.836;2022-07-29T17:08:48;1.98;;;1.13;;
56141;SDS011;42018;48.588;10.836;2022-07-29T17:11:34;2.65;;;1.20;;
56141;SDS011;42018;48.588;10.836;2022-07-29T17:14:25;2.35;;;1.20;;
56141;SDS011;42018;48.588;10.836;2022-07-29T17:17:12;2.80;;;1.10;;
56141;SDS011;42018;48.588;10.836;2022-07-29T17:19:57;2.42;;;1.30;;